Terminal Aerodrome Forecast
Issued by NWS

Home | Current Version | Previous Version | Text Only | Print | Product List | Glossary On
Versions: 1 2 3 4 5 6 7 8 9 10 11 12 13 14 15 16
000
FTUS43 KICT 241129
TAFSLN
TAF
KSLN 241129Z 2412/2512 17018G26KT P6SM SCT060 SCT100
     FM242000 16015KT P6SM VCTS BKN050CB
     FM242300 01018G26KT P6SM VCTS SCT015 BKN025CB
     FM250200 36018G26KT P6SM VCSH SCT015 BKN025=

USA.gov is the U.S. government's official web portal to all federal, state and local government web resources and services.